Time;durP1;ratioP1;P1;durP2;ratioP2;P2;SDS_P1;SDS_P2;PMS_P1;PMS_P2;Temp;Humidity;BMP_temperature;BMP_pressure;BME280_temperature;BME280_humidity;BME280_pressure;Samples;Min_cycle;Max_cycle;Signal;HPM_P1;HPM_P2
2021/07/25 07:18:58;;;;;;;7.45;5.38;;;;;;;;;;6297237;22;20018;-83
2021/07/25 07:22:14;;;;;;;5.83;5.10;;;;;;;;;;6135549;22;3210812;-83
2021/07/25 07:40:42;;;;;;;6.47;5.00;;;;;;;;;;6180021;22;20029;-82
2021/07/25 07:43:10;;;;;;;8.98;5.10;;;;;;;;;;6157750;23;20019;-82
2021/07/25 07:45:38;;;;;;;7.22;5.35;;;;;;;;;;6157437;23;20001;-82
2021/07/25 07:48:03;;;;;;;10.18;5.70;;;;;;;;;;6160074;23;20078;-82
2021/07/25 07:50:29;;;;;;;8.63;5.60;;;;;;;;;;6159287;23;20037;-82
2021/07/25 07:52:55;;;;;;;9.52;5.45;;;;;;;;;;6157682;23;20113;-82
2021/07/25 07:55:20;;;;;;;7.15;5.30;;;;;;;;;;6137500;23;20008;-83
2021/07/25 07:57:47;;;;;;;11.80;6.15;;;;;;;;;;6161469;23;20001;-82
2021/07/25 08:00:14;;;;;;;9.15;5.72;;;;;;;;;;6166751;23;20028;-83
2021/07/25 08:13:00;;;;;;;15.55;5.88;;;;;;;;;;6202359;22;20025;-83
2021/07/25 08:15:26;;;;;;;8.85;5.25;;;;;;;;;;6190024;23;20032;-82
2021/07/25 08:17:51;;;;;;;8.20;5.22;;;;;;;;;;6187192;23;20005;-81
2021/07/25 08:20:17;;;;;;;9.50;5.60;;;;;;;;;;6186275;23;20004;-80
2021/07/25 08:22:42;;;;;;;9.45;5.75;;;;;;;;;;6185451;23;20001;-82
2021/07/25 08:25:09;;;;;;;10.82;5.28;;;;;;;;;;6186713;23;20005;-81
2021/07/25 08:27:56;;;;;;;9.48;5.60;;;;;;;;;;6197723;23;19993;-83
2021/07/25 08:30:22;;;;;;;7.03;5.43;;;;;;;;;;6195188;23;20013;-81
2021/07/25 08:32:48;;;;;;;11.07;5.28;;;;;;;;;;6191573;23;20098;-81
2021/07/25 08:35:14;;;;;;;7.40;5.35;;;;;;;;;;6194907;23;20024;-82
2021/07/25 08:37:40;;;;;;;7.03;5.70;;;;;;;;;;6185297;23;20056;-80
2021/07/25 08:40:06;;;;;;;6.88;5.05;;;;;;;;;;6183825;23;19997;-82
2021/07/25 08:42:37;;;;;;;7.63;5.28;;;;;;;;;;6186076;23;20001;-81
2021/07/25 08:45:03;;;;;;;11.30;5.22;;;;;;;;;;6185989;23;20035;-82
2021/07/25 08:47:36;;;;;;;7.82;5.38;;;;;;;;;;6183729;23;20001;-81
2021/07/25 13:23:27;;;;;;;4.95;3.15;;;;;;;;;;6225116;22;20021;-84
2021/07/25 13:25:53;;;;;;;3.90;3.00;;;;;;;;;;6161629;23;20332;-84
2021/07/25 13:28:20;;;;;;;3.72;2.60;;;;;;;;;;6186651;23;20001;-84
2021/07/25 13:30:45;;;;;;;4.07;2.80;;;;;;;;;;6186474;23;20427;-85
2021/07/25 13:33:12;;;;;;;6.10;3.22;;;;;;;;;;6161756;23;20009;-85
2021/07/25 13:35:37;;;;;;;3.88;2.85;;;;;;;;;;6187325;23;20001;-86
2021/07/25 13:38:03;;;;;;;5.30;3.45;;;;;;;;;;6161180;23;20391;-85
2021/07/25 13:40:28;;;;;;;3.47;2.80;;;;;;;;;;6185830;23;20028;-86
2021/07/25 13:42:54;;;;;;;6.30;3.33;;;;;;;;;;6159611;23;20340;-86
2021/07/25 13:45:19;;;;;;;4.30;3.00;;;;;;;;;;6134781;23;20424;-86
2021/07/25 13:47:45;;;;;;;5.13;2.80;;;;;;;;;;6158692;23;20007;-86
2021/07/25 13:50:12;;;;;;;3.72;2.88;;;;;;;;;;6158565;23;20001;-87
2021/07/25 13:52:38;;;;;;;5.38;2.92;;;;;;;;;;6158726;23;20029;-87
2021/07/25 13:55:05;;;;;;;4.35;3.33;;;;;;;;;;6158972;23;20340;-87
2021/07/25 13:57:30;;;;;;;4.93;3.13;;;;;;;;;;6158580;23;20000;-87
2021/07/25 13:59:55;;;;;;;5.32;3.17;;;;;;;;;;6160091;23;20008;-86
2021/07/25 14:02:21;;;;;;;4.60;3.10;;;;;;;;;;6158775;23;20005;-86
2021/07/25 14:04:46;;;;;;;4.95;3.60;;;;;;;;;;6187131;23;20024;-86
2021/07/25 14:07:15;;;;;;;4.13;2.88;;;;;;;;;;6134387;23;20005;-87
2021/07/25 14:09:41;;;;;;;5.28;3.17;;;;;;;;;;6158347;23;20036;-87
2021/07/25 14:12:07;;;;;;;5.20;3.30;;;;;;;;;;6185155;23;20012;-88
2021/07/25 14:14:32;;;;;;;4.13;3.10;;;;;;;;;;6159267;23;20001;-86
2021/07/25 14:17:07;;;;;;;4.85;3.40;;;;;;;;;;6185195;23;20027;-85
2021/07/25 14:19:33;;;;;;;5.97;3.17;;;;;;;;;;6186339;23;19993;-84
2021/07/25 14:21:59;;;;;;;5.95;3.53;;;;;;;;;;6159530;23;20001;-84
2021/07/25 14:24:25;;;;;;;4.32;3.42;;;;;;;;;;6181978;23;20009;-85
2021/07/25 14:26:51;;;;;;;4.93;3.10;;;;;;;;;;6215715;23;20000;-85
2021/07/25 14:29:16;;;;;;;5.55;4.30;;;;;;;;;;6217413;23;20423;-86
2021/07/25 14:31:41;;;;;;;4.78;2.97;;;;;;;;;;6214343;23;20104;-86
2021/07/25 14:34:07;;;;;;;8.52;3.50;;;;;;;;;;6213234;23;20419;-86
2021/07/25 14:36:32;;;;;;;5.63;3.38;;;;;;;;;;6213606;23;20000;-86
2021/07/25 14:38:58;;;;;;;5.95;3.00;;;;;;;;;;6213249;23;20071;-86
2021/07/25 14:41:24;;;;;;;4.35;3.13;;;;;;;;;;6212646;23;20007;-86
2021/07/25 14:43:51;;;;;;;6.57;3.60;;;;;;;;;;6212611;23;20054;-87
2021/07/25 14:46:17;;;;;;;4.75;3.22;;;;;;;;;;6212916;23;19996;-87
2021/07/25 14:48:44;;;;;;;5.53;3.40;;;;;;;;;;6212932;23;20000;-88
2021/07/25 14:51:11;;;;;;;6.68;3.60;;;;;;;;;;6212844;23;20007;-87
2021/07/25 14:53:37;;;;;;;5.93;3.53;;;;;;;;;;6212747;23;20035;-88
2021/07/25 14:56:07;;;;;;;3.95;2.97;;;;;;;;;;6212576;23;20419;-87
2021/07/25 14:58:32;;;;;;;;;;;;;;;;;;6212891;23;20079;-87
2021/07/25 15:00:58;;;;;;;4.50;3.43;;;;;;;;;;6214103;23;20338;-87
2021/07/25 15:03:23;;;;;;;4.43;3.28;;;;;;;;;;6214392;23;20617;-88
2021/07/25 15:05:49;;;;;;;6.78;2.83;;;;;;;;;;6214344;23;19996;-87
2021/07/25 15:08:14;;;;;;;4.70;3.38;;;;;;;;;;6214200;23;20003;-87
2021/07/25 15:10:40;;;;;;;4.15;2.90;;;;;;;;;;6212366;23;20008;-87
2021/07/25 15:13:06;;;;;;;3.97;3.10;;;;;;;;;;6212416;23;20443;-87
2021/07/25 15:15:32;;;;;;;4.68;3.45;;;;;;;;;;6213788;23;20011;-87
2021/07/25 15:17:58;;;;;;;4.82;2.97;;;;;;;;;;6212932;23;20056;-87
2021/07/25 15:20:23;;;;;;;3.55;3.00;;;;;;;;;;6212569;23;20092;-88
2021/07/25 15:22:49;;;;;;;3.50;3.00;;;;;;;;;;6212440;23;20434;-87
2021/07/25 15:25:14;;;;;;;4.57;3.00;;;;;;;;;;6190329;23;20024;-86
2021/07/25 15:27:40;;;;;;;4.03;3.03;;;;;;;;;;6157449;23;20009;-86
2021/07/25 15:30:07;;;;;;;6.45;3.90;;;;;;;;;;6157852;23;20008;-86
2021/07/25 15:32:33;;;;;;;3.97;2.75;;;;;;;;;;6185117;23;20395;-86
2021/07/25 15:34:58;;;;;;;5.57;3.38;;;;;;;;;;6159809;23;20001;-87
2021/07/25 15:37:24;;;;;;;5.53;3.10;;;;;;;;;;6185850;23;20005;-87
2021/07/25 15:39:49;;;;;;;6.20;3.15;;;;;;;;;;6159523;23;20005;-87
2021/07/25 15:42:15;;;;;;;4.97;2.88;;;;;;;;;;6184225;23;20439;-87
2021/07/25 15:44:40;;;;;;;3.60;2.90;;;;;;;;;;6159252;23;20005;-87
2021/07/25 15:47:06;;;;;;;4.97;3.55;;;;;;;;;;6159677;23;20008;-87
2021/07/25 15:49:31;;;;;;;5.32;3.22;;;;;;;;;;6159114;23;20005;-86
2021/07/25 15:51:56;;;;;;;5.22;3.20;;;;;;;;;;6185895;23;20001;-87
2021/07/25 15:54:22;;;;;;;3.80;2.80;;;;;;;;;;6186022;23;20342;-88
2021/07/25 15:56:47;;;;;;;3.95;2.78;;;;;;;;;;6185242;23;20008;-88
2021/07/25 15:59:13;;;;;;;4.15;2.80;;;;;;;;;;6159530;23;20024;-88
2021/07/25 16:01:42;;;;;;;5.53;3.05;;;;;;;;;;6185557;23;20321;-87
2021/07/25 16:04:07;;;;;;;4.20;2.70;;;;;;;;;;6185684;23;20060;-87
2021/07/25 16:06:33;;;;;;;4.03;2.67;;;;;;;;;;6159360;23;19997;-90
2021/07/25 16:08:58;;;;;;;3.65;3.00;;;;;;;;;;6184137;23;20005;-89
2021/07/25 16:11:27;;;;;;;5.53;2.80;;;;;;;;;;6185402;23;20056;-87
2021/07/25 16:13:54;;;;;;;5.18;3.15;;;;;;;;;;6184157;23;20009;-87
2021/07/25 16:16:21;;;;;;;3.30;2.90;;;;;;;;;;6185766;23;20404;-87
2021/07/25 16:18:48;;;;;;;4.40;2.50;;;;;;;;;;6185438;23;20001;-87
2021/07/25 16:21:15;;;;;;;3.10;2.80;;;;;;;;;;6185784;23;20064;-86
2021/07/25 16:23:41;;;;;;;4.00;2.40;;;;;;;;;;6183565;23;20083;-86
2021/07/25 16:26:07;;;;;;;4.90;2.80;;;;;;;;;;6185311;23;20005;-87
2021/07/25 16:28:32;;;;;;;2.92;2.40;;;;;;;;;;6185565;23;20473;-86
2021/07/25 16:30:58;;;;;;;3.78;2.90;;;;;;;;;;6158584;23;20001;-86
2021/07/25 16:33:24;;;;;;;3.65;2.55;;;;;;;;;;6185205;23;20344;-87
2021/07/25 16:35:49;;;;;;;5.35;3.03;;;;;;;;;;6158303;23;20061;-87
2021/07/25 16:38:15;;;;;;;3.45;2.63;;;;;;;;;;6185530;23;20001;-88
2021/07/25 16:40:41;;;;;;;3.63;3.13;;;;;;;;;;6158820;23;20001;-86
2021/07/25 16:43:07;;;;;;;5.05;3.85;;;;;;;;;;6185389;23;20007;-87
2021/07/25 16:45:32;;;;;;;7.60;6.22;;;;;;;;;;6158676;23;20028;-86
2021/07/25 16:47:58;;;;;;;5.20;3.78;;;;;;;;;;6185290;23;20431;-88
2021/07/25 16:50:25;;;;;;;5.35;3.20;;;;;;;;;;6159259;23;20332;-87
2021/07/25 16:52:51;;;;;;;4.43;3.22;;;;;;;;;;6183631;23;20005;-87
2021/07/25 16:55:17;;;;;;;7.25;3.30;;;;;;;;;;6184922;23;20005;-87
2021/07/25 16:57:43;;;;;;;4.68;3.25;;;;;;;;;;6185175;23;20351;-87
2021/07/25 17:00:08;;;;;;;5.28;3.63;;;;;;;;;;6159166;23;19993;-87
2021/07/25 17:02:34;;;;;;;3.92;3.00;;;;;;;;;;6159172;23;20001;-87
2021/07/25 17:04:59;;;;;;;8.85;3.53;;;;;;;;;;6159806;23;19997;-86
2021/07/25 17:07:25;;;;;;;5.13;3.00;;;;;;;;;;6186132;23;20005;-86
2021/07/25 17:09:51;;;;;;;8.07;3.17;;;;;;;;;;6159935;23;20005;-86
2021/07/25 17:12:16;;;;;;;3.60;2.95;;;;;;;;;;6160524;23;20355;-86
2021/07/25 17:14:42;;;;;;;4.25;2.70;;;;;;;;;;6187166;23;20032;-85
2021/07/25 17:17:08;;;;;;;5.00;2.75;;;;;;;;;;6161946;23;19997;-84
2021/07/25 17:19:34;;;;;;;3.75;2.60;;;;;;;;;;6165803;23;20021;-83
2021/07/25 17:22:00;;;;;;;2.95;2.65;;;;;;;;;;6169118;23;20009;-83
2021/07/25 19:49:48;;;;;;;5.63;4.20;;;;;;;;;;6205510;22;20363;-81
2021/07/25 19:52:13;;;;;;;7.20;3.67;;;;;;;;;;6162844;23;20072;-81
2021/07/25 19:54:40;;;;;;;11.38;4.20;;;;;;;;;;6162784;23;19997;-82
2021/07/25 19:57:06;;;;;;;6.32;3.78;;;;;;;;;;6188029;23;20001;-81
2021/07/25 19:59:32;;;;;;;5.00;3.10;;;;;;;;;;6184360;23;20058;-80
2021/07/25 20:01:58;;;;;;;7.65;3.60;;;;;;;;;;6185097;23;19997;-80
2021/07/25 20:04:23;;;;;;;8.68;3.10;;;;;;;;;;6183115;23;20337;-81
2021/07/25 20:06:49;;;;;;;8.75;3.70;;;;;;;;;;6158082;23;20005;-80
2021/07/25 20:09:14;;;;;;;10.25;3.47;;;;;;;;;;6186735;23;20020;-80
2021/07/25 20:11:41;;;;;;;10.25;3.42;;;;;;;;;;6183734;23;20041;-81
2021/07/25 20:14:07;;;;;;;7.95;3.35;;;;;;;;;;6185822;23;20007;-80
2021/07/25 20:16:33;;;;;;;7.97;3.50;;;;;;;;;;6185231;23;20499;-81
2021/07/25 20:18:58;;;;;;;6.10;3.25;;;;;;;;;;6158176;23;20024;-80
2021/07/25 20:21:25;;;;;;;5.35;3.40;;;;;;;;;;6184970;23;20019;-81
2021/07/25 20:23:50;;;;;;;5.53;3.20;;;;;;;;;;6186093;23;20032;-81
2021/07/25 20:26:16;;;;;;;10.30;3.63;;;;;;;;;;6185705;23;20424;-80
2021/07/25 20:28:41;;;;;;;7.70;3.13;;;;;;;;;;6184585;23;20001;-80
2021/07/25 20:31:08;;;;;;;5.95;3.25;;;;;;;;;;6185101;23;20009;-80
2021/07/25 20:33:34;;;;;;;6.32;3.55;;;;;;;;;;6186141;23;20012;-78
2021/07/25 20:36:00;;;;;;;6.68;3.65;;;;;;;;;;6185672;23;19993;-80
2021/07/25 20:38:26;;;;;;;5.30;3.30;;;;;;;;;;6185615;23;20004;-81
2021/07/25 20:40:52;;;;;;;5.88;3.67;;;;;;;;;;6188178;23;19997;-78
2021/07/25 20:43:18;;;;;;;7.57;4.03;;;;;;;;;;6161956;23;20001;-81
2021/07/25 20:45:45;;;;;;;6.18;3.40;;;;;;;;;;6187011;23;20064;-78
2021/07/25 20:48:11;;;;;;;4.80;3.08;;;;;;;;;;6189546;23;20024;-80
2021/07/25 20:50:38;;;;;;;6.97;3.85;;;;;;;;;;6192617;23;20013;-78
2021/07/25 20:53:05;;;;;;;6.32;3.47;;;;;;;;;;6195779;23;19985;-79
